createdAt,value
2023-02-19T00:01:46.889Z,2.75
2023-02-19T00:04:16.463Z,2.13
2023-02-19T00:06:46.970Z,3.33
2023-02-19T00:09:19.289Z,2.20
2023-02-19T00:11:47.988Z,3.63
2023-02-19T00:14:17.818Z,1.65
2023-02-19T00:16:46.093Z,2.95
2023-02-19T00:19:15.924Z,2.13
2023-02-19T00:22:15.095Z,2.28
2023-02-19T00:24:49.030Z,2.42
2023-02-19T00:27:17.500Z,3.08
2023-02-19T00:29:45.722Z,2.95
2023-02-19T00:32:13.963Z,3.08
2023-02-19T00:34:42.243Z,3.13
2023-02-19T00:37:10.489Z,2.83
2023-02-19T00:39:49.984Z,3.53
2023-02-19T00:42:18.178Z,2.13
2023-02-19T00:44:46.381Z,1.50
2023-02-19T00:47:14.558Z,1.67
2023-02-19T00:49:42.830Z,1.27
2023-02-19T00:52:11.066Z,2.15
2023-02-19T00:54:39.317Z,1.58
2023-02-19T00:57:09.068Z,1.13
2023-02-19T00:59:37.438Z,1.10
2023-02-19T01:02:05.729Z,0.98
2023-02-19T01:04:33.984Z,1.30
2023-02-19T01:07:30.003Z,2.03
2023-02-19T01:10:00.208Z,1.67
2023-02-19T01:12:29.839Z,1.92
2023-02-19T01:14:58.056Z,1.30
2023-02-19T01:17:26.329Z,2.53
2023-02-19T01:19:54.709Z,1.00
2023-02-19T01:22:22.836Z,1.15
2023-02-19T01:24:51.058Z,0.75
2023-02-19T01:27:19.282Z,0.75
2023-02-19T01:29:49.000Z,0.70
2023-02-19T01:32:17.160Z,1.35
2023-02-19T01:34:45.505Z,1.67
2023-02-19T01:37:13.616Z,0.70
2023-02-19T01:39:48.899Z,1.60
2023-02-19T01:42:18.038Z,0.73
2023-02-19T01:45:25.601Z,0.90
2023-02-19T01:48:22.244Z,0.70
2023-02-19T01:50:53.579Z,1.42
2023-02-19T01:53:28.272Z,0.70
2023-02-19T01:56:00.485Z,0.77
2023-02-19T01:59:18.776Z,1.00
2023-02-19T02:01:47.372Z,2.13
2023-02-19T02:04:21.137Z,1.38
2023-02-19T02:06:53.664Z,1.00
2023-02-19T02:09:57.773Z,0.93
2023-02-19T02:12:26.254Z,1.17
2023-02-19T02:14:54.512Z,0.80
2023-02-19T02:17:27.871Z,0.85
2023-02-19T02:20:13.272Z,1.00
2023-02-19T02:22:46.106Z,1.13
2023-02-19T02:25:41.458Z,1.65
2023-02-19T02:28:29.846Z,1.95
2023-02-19T02:31:03.386Z,1.17
2023-02-19T02:33:37.784Z,1.23
2023-02-19T02:36:09.066Z,1.70
2023-02-19T02:38:45.115Z,1.73
2023-02-19T02:41:16.275Z,1.88
2023-02-19T02:43:44.488Z,1.63
2023-02-19T02:46:17.074Z,0.90
2023-02-19T02:48:54.018Z,1.20
2023-02-19T02:51:27.967Z,1.30
2023-02-19T02:54:29.189Z,1.88
2023-02-19T02:57:00.640Z,1.80
2023-02-19T02:59:37.031Z,2.17
2023-02-19T03:02:12.023Z,0.80
2023-02-19T03:05:02.234Z,1.80
2023-02-19T03:07:37.244Z,0.93
2023-02-19T03:10:08.644Z,1.08
2023-02-19T03:12:56.368Z,1.02
2023-02-19T03:15:43.354Z,1.20
2023-02-19T03:18:33.080Z,1.50
2023-02-19T03:21:02.927Z,1.13
2023-02-19T03:23:53.446Z,0.73
2023-02-19T03:26:23.003Z,0.80
2023-02-19T03:29:12.706Z,1.40
2023-02-19T03:31:46.506Z,1.33
2023-02-19T03:34:21.421Z,0.80
2023-02-19T03:36:54.709Z,0.90
2023-02-19T03:39:25.700Z,0.98
2023-02-19T03:42:03.347Z,1.00
2023-02-19T03:44:42.116Z,0.70
2023-02-19T03:47:16.898Z,1.90
2023-02-19T03:49:53.156Z,1.65
2023-02-19T03:52:32.006Z,1.38
2023-02-19T03:59:25.147Z,1.30
2023-02-19T04:01:57.925Z,0.77
2023-02-19T04:04:30.808Z,0.90
2023-02-19T04:07:00.642Z,4.30
2023-02-19T04:09:37.732Z,1.15
2023-02-19T04:12:14.182Z,1.63
2023-02-19T04:14:47.030Z,1.92
2023-02-19T04:17:23.562Z,1.23
2023-02-19T04:19:55.776Z,1.70
2023-02-19T04:22:26.489Z,1.30
2023-02-19T04:24:56.789Z,1.52
2023-02-19T04:27:25.048Z,1.45
2023-02-19T04:29:53.315Z,2.40
2023-02-19T04:32:21.747Z,1.70
2023-02-19T04:34:49.994Z,1.73
2023-02-19T04:37:18.250Z,3.38
2023-02-19T04:39:47.895Z,2.90
2023-02-19T04:42:16.394Z,6.93
2023-02-19T04:44:44.812Z,5.78
2023-02-19T04:47:13.089Z,2.58
2023-02-19T04:49:41.253Z,3.67
2023-02-19T04:52:09.400Z,8.10
2023-02-19T04:54:44.475Z,5.75
2023-02-19T04:57:14.047Z,3.95
2023-02-19T04:59:47.648Z,2.58
2023-02-19T05:02:18.981Z,2.78
2023-02-19T05:04:47.163Z,4.75
2023-02-19T05:07:16.328Z,2.55
2023-02-19T05:09:44.501Z,2.15
2023-02-19T05:12:14.065Z,1.85
2023-02-19T05:14:42.316Z,2.33
2023-02-19T05:17:10.499Z,5.38
2023-02-19T05:19:42.310Z,1.98
2023-02-19T05:22:29.573Z,2.75
2023-02-19T05:25:26.038Z,2.85
2023-02-19T05:28:15.665Z,2.92
2023-02-19T05:30:43.897Z,2.20
2023-02-19T05:33:12.083Z,4.03
2023-02-19T05:35:45.325Z,2.47
2023-02-19T05:38:13.699Z,3.17
2023-02-19T05:40:42.603Z,2.92
2023-02-19T05:43:14.856Z,5.32
2023-02-19T05:45:46.330Z,3.97
2023-02-19T05:48:15.681Z,6.55
2023-02-19T05:50:47.308Z,4.93
2023-02-19T05:53:19.261Z,5.53
2023-02-19T05:55:47.460Z,6.65
2023-02-19T05:58:18.031Z,8.00
2023-02-19T06:00:46.298Z,4.55
2023-02-19T06:03:14.522Z,6.25
2023-02-19T06:05:42.807Z,4.60
2023-02-19T06:08:12.189Z,4.75
2023-02-19T06:10:41.446Z,4.20
2023-02-19T06:13:12.359Z,6.65
2023-02-19T06:15:41.971Z,4.95
2023-02-19T06:18:10.241Z,7.93
2023-02-19T06:20:38.762Z,9.98
2023-02-19T06:23:07.030Z,11.73
2023-02-19T06:25:35.159Z,5.82
2023-02-19T06:28:03.274Z,4.47
2023-02-19T06:30:36.277Z,5.53
2023-02-19T06:33:07.944Z,6.28
2023-02-19T06:35:36.214Z,6.43
2023-02-19T06:42:23.232Z,4.63
2023-02-19T06:44:51.465Z,7.13
2023-02-19T06:47:24.324Z,5.60
2023-02-19T06:52:56.689Z,3.15
2023-02-19T06:55:35.046Z,2.28
2023-02-19T06:58:08.941Z,1.95
2023-02-19T07:00:37.306Z,1.52
2023-02-19T07:03:05.736Z,1.70
2023-02-19T07:05:35.904Z,6.75
2023-02-19T07:08:06.031Z,3.08
2023-02-19T07:14:52.040Z,1.58
2023-02-19T07:21:38.528Z,2.90
2023-02-19T07:24:08.473Z,1.90
2023-02-19T07:26:37.087Z,1.67
2023-02-19T07:29:05.717Z,2.00
2023-02-19T07:31:34.017Z,1.40
2023-02-19T07:34:02.397Z,1.00
2023-02-19T07:36:30.588Z,1.90
2023-02-19T07:39:01.934Z,1.63
2023-02-19T07:41:33.638Z,4.15
2023-02-19T07:44:03.935Z,3.20
2023-02-19T07:46:32.572Z,2.65
2023-02-19T07:49:01.238Z,2.17
2023-02-19T07:51:30.581Z,2.25
2023-02-19T07:53:59.786Z,3.15
2023-02-19T07:56:28.984Z,2.40
2023-02-19T07:58:58.722Z,1.92
2023-02-19T08:01:40.760Z,2.30
2023-02-19T08:04:09.269Z,2.13
2023-02-19T08:06:37.639Z,3.65
2023-02-19T08:09:06.436Z,9.77
2023-02-19T08:11:52.432Z,3.92
2023-02-19T08:14:26.255Z,5.65
2023-02-19T08:16:54.874Z,7.32
2023-02-19T08:19:23.673Z,7.57
2023-02-19T08:21:53.668Z,8.00
2023-02-19T08:24:22.176Z,8.20
2023-02-19T08:26:50.390Z,9.90
2023-02-19T08:29:18.741Z,9.05
2023-02-19T08:31:48.598Z,9.15
2023-02-19T08:34:16.919Z,12.48
2023-02-19T08:36:45.454Z,9.43
2023-02-19T08:39:13.883Z,11.02
2023-02-19T08:41:42.148Z,12.35
2023-02-19T08:44:10.465Z,10.93
2023-02-19T08:46:39.143Z,12.25
2023-02-19T08:49:08.854Z,12.98
2023-02-19T08:51:37.133Z,10.15
2023-02-19T08:54:06.035Z,11.43
2023-02-19T08:56:34.335Z,11.10
2023-02-19T08:59:03.036Z,11.20
2023-02-19T09:01:31.313Z,9.52
2023-02-19T09:03:59.577Z,9.38
2023-02-19T09:06:29.252Z,10.85
2023-02-19T09:08:57.544Z,12.90
2023-02-19T09:11:25.800Z,12.90
2023-02-19T09:13:56.662Z,11.30
2023-02-19T09:16:24.976Z,12.60
2023-02-19T09:18:53.256Z,11.82
2023-02-19T09:21:21.544Z,12.23
2023-02-19T09:23:51.157Z,13.43
2023-02-19T09:26:19.363Z,11.80
2023-02-19T09:28:47.760Z,15.90
2023-02-19T09:31:17.413Z,14.35
2023-02-19T09:33:46.035Z,14.90
2023-02-19T09:36:17.151Z,12.68
2023-02-19T09:38:45.762Z,13.43
2023-02-19T09:41:23.740Z,11.68
2023-02-19T09:43:52.460Z,16.88
2023-02-19T09:46:30.242Z,14.95
2023-02-19T09:49:04.809Z,17.45
2023-02-19T09:51:35.686Z,12.75
2023-02-19T09:54:06.681Z,10.70
2023-02-19T09:56:37.171Z,11.40
2023-02-19T09:59:08.402Z,7.75
2023-02-19T10:01:40.783Z,10.65
2023-02-19T10:04:11.514Z,7.88
2023-02-19T10:06:40.223Z,11.55
2023-02-19T10:09:23.686Z,12.52
2023-02-19T10:11:57.033Z,9.30
2023-02-19T10:14:35.921Z,11.77
2023-02-19T10:17:06.498Z,16.83
2023-02-19T10:19:35.806Z,13.32
2023-02-19T10:22:05.466Z,9.88
2023-02-19T10:24:35.483Z,6.90
2023-02-19T10:27:11.570Z,5.85
2023-02-19T10:29:41.481Z,9.00
2023-02-19T10:32:21.243Z,6.78
2023-02-19T10:34:51.479Z,5.65
2023-02-19T10:37:20.988Z,5.57
2023-02-19T10:39:52.422Z,7.13
2023-02-19T10:42:24.979Z,6.82
2023-02-19T10:45:01.829Z,8.00
2023-02-19T10:47:33.052Z,4.32
2023-02-19T10:50:04.646Z,5.97
2023-02-19T10:52:37.061Z,4.85
2023-02-19T10:55:28.656Z,6.82
2023-02-19T10:57:59.470Z,8.20
2023-02-19T11:00:30.868Z,4.78
2023-02-19T11:03:21.151Z,4.50
2023-02-19T11:05:59.265Z,5.10
2023-02-19T11:08:32.807Z,3.63
2023-02-19T11:11:02.539Z,6.68
2023-02-19T11:13:38.331Z,8.00
2023-02-19T11:16:07.630Z,5.40
2023-02-19T11:18:37.373Z,6.60
2023-02-19T11:21:09.574Z,5.93
2023-02-19T11:23:45.422Z,5.45
2023-02-19T11:26:20.428Z,5.80
2023-02-19T11:28:59.552Z,4.13
2023-02-19T11:31:32.750Z,5.47
2023-02-19T11:34:05.483Z,7.32
2023-02-19T11:36:41.019Z,7.03
2023-02-19T11:39:24.143Z,4.93
2023-02-19T11:42:15.376Z,6.63
2023-02-19T11:45:04.644Z,6.90
2023-02-19T11:48:06.273Z,5.40
2023-02-19T11:50:49.868Z,8.43
2023-02-19T11:53:26.722Z,7.15
2023-02-19T11:56:10.073Z,6.95
2023-02-19T11:58:53.809Z,5.07
2023-02-19T12:01:32.168Z,5.68
2023-02-19T12:04:38.884Z,4.10
2023-02-19T12:07:20.118Z,2.80
2023-02-19T12:10:02.177Z,2.45
2023-02-19T12:12:49.085Z,2.78
2023-02-19T12:15:33.337Z,3.15
2023-02-19T12:18:41.459Z,2.38
2023-02-19T12:21:28.140Z,3.22
2023-02-19T12:24:10.984Z,2.15
2023-02-19T12:26:45.248Z,2.28
2023-02-19T12:29:32.882Z,2.35
2023-02-19T12:32:34.897Z,2.85
2023-02-19T12:35:55.492Z,2.75
2023-02-19T12:38:35.365Z,2.63
2023-02-19T12:41:32.406Z,1.92
2023-02-19T12:44:07.317Z,2.13
2023-02-19T12:46:40.628Z,1.80
2023-02-19T12:49:16.796Z,0.90
2023-02-19T12:51:50.166Z,1.75
2023-02-19T12:54:26.802Z,3.05
2023-02-19T12:57:03.475Z,8.70
2023-02-19T12:59:36.780Z,3.45
2023-02-19T13:02:16.846Z,1.30
2023-02-19T13:04:52.689Z,1.17
2023-02-19T13:07:27.145Z,1.63
2023-02-19T13:10:01.940Z,1.33
2023-02-19T13:12:34.672Z,1.10
2023-02-19T13:15:09.270Z,1.50
2023-02-19T13:17:44.570Z,1.52
2023-02-19T13:20:22.168Z,2.05
2023-02-19T13:23:20.103Z,3.35
2023-02-19T13:26:05.330Z,1.83
2023-02-19T13:28:59.645Z,1.08
2023-02-19T13:31:50.869Z,2.60
2023-02-19T13:34:32.826Z,2.25
2023-02-19T13:37:03.137Z,1.65
2023-02-19T13:39:33.261Z,1.50
2023-02-19T13:42:07.287Z,1.17
2023-02-19T13:44:39.028Z,1.38
2023-02-19T13:47:28.414Z,1.73
2023-02-19T13:50:06.850Z,1.77
2023-02-19T13:52:42.854Z,1.35
2023-02-19T13:55:52.192Z,3.25
2023-02-19T13:59:02.901Z,1.73
2023-02-19T14:02:04.985Z,2.08
2023-02-19T14:04:54.517Z,1.52
2023-02-19T14:07:56.814Z,3.45
2023-02-19T14:11:02.774Z,4.18
2023-02-19T14:14:06.803Z,2.10
2023-02-19T14:17:06.149Z,4.63
2023-02-19T14:19:54.097Z,2.65
2023-02-19T14:23:04.233Z,2.88
2023-02-19T14:25:41.350Z,2.92
2023-02-19T14:28:22.710Z,4.40
2023-02-19T14:30:59.172Z,2.80
2023-02-19T14:33:31.567Z,1.65
2023-02-19T14:36:06.384Z,2.33
2023-02-19T14:38:40.726Z,1.20
2023-02-19T14:41:15.165Z,0.98
2023-02-19T14:43:45.194Z,1.05
2023-02-19T14:46:23.569Z,1.38
2023-02-19T14:48:54.035Z,0.70
2023-02-19T14:51:32.188Z,1.08
2023-02-19T14:54:07.528Z,5.15
2023-02-19T14:56:38.255Z,2.38
2023-02-19T14:59:26.177Z,0.45
2023-02-19T15:02:05.785Z,2.42
2023-02-19T15:04:38.746Z,1.17
2023-02-19T15:07:11.100Z,2.92
2023-02-19T15:09:45.263Z,2.85
2023-02-19T15:12:21.601Z,4.00
2023-02-19T15:14:55.138Z,3.88
2023-02-19T15:17:30.051Z,5.32
2023-02-19T15:20:03.990Z,3.95
2023-02-19T15:22:35.383Z,2.88
2023-02-19T15:25:08.602Z,1.95
2023-02-19T15:27:40.114Z,4.27
2023-02-19T15:30:21.351Z,2.00
2023-02-19T15:32:58.673Z,1.15
2023-02-19T15:35:40.509Z,1.10
2023-02-19T15:38:15.148Z,1.10
2023-02-19T15:40:47.344Z,2.22
2023-02-19T15:43:25.082Z,2.13
2023-02-19T15:45:58.617Z,1.23
2023-02-19T15:48:36.895Z,0.98
2023-02-19T15:51:12.357Z,0.70
2023-02-19T15:53:49.680Z,4.15
2023-02-19T15:56:32.544Z,1.00
2023-02-19T15:59:06.745Z,1.08
2023-02-19T16:01:42.009Z,2.33
2023-02-19T16:04:16.486Z,1.88
2023-02-19T16:06:58.908Z,3.50
2023-02-19T16:09:34.742Z,7.07
2023-02-19T16:12:21.050Z,1.77
2023-02-19T16:14:53.865Z,1.90
2023-02-19T16:17:28.975Z,2.45
2023-02-19T16:20:02.762Z,3.40
2023-02-19T16:22:35.492Z,5.00
2023-02-19T16:25:09.305Z,2.08
2023-02-19T16:27:42.102Z,3.53
2023-02-19T16:30:28.681Z,1.40
2023-02-19T16:33:34.938Z,2.17
2023-02-19T16:36:30.481Z,1.38
2023-02-19T16:39:19.739Z,1.77
2023-02-19T16:42:20.111Z,4.60
2023-02-19T16:44:51.120Z,2.60
2023-02-19T16:47:31.432Z,3.05
2023-02-19T16:50:08.105Z,2.90
2023-02-19T16:52:42.918Z,2.92
2023-02-19T16:55:16.491Z,2.63
2023-02-19T16:57:50.941Z,1.08
2023-02-19T17:00:23.065Z,1.48
2023-02-19T17:02:55.730Z,4.00
2023-02-19T17:05:27.871Z,3.13
2023-02-19T17:07:59.418Z,1.42
2023-02-19T17:10:30.505Z,1.60
2023-02-19T17:13:00.124Z,1.88
2023-02-19T17:15:31.202Z,1.90
2023-02-19T17:18:01.692Z,2.38
2023-02-19T17:20:38.740Z,1.27
2023-02-19T17:23:19.677Z,0.73
2023-02-19T17:25:49.528Z,0.45
2023-02-19T17:28:20.210Z,1.85
2023-02-19T17:30:50.602Z,2.85
2023-02-19T17:33:22.167Z,2.50
2023-02-19T17:35:51.666Z,2.75
2023-02-19T17:38:23.489Z,3.45
2023-02-19T17:41:00.882Z,1.50
2023-02-19T17:43:32.821Z,1.30
2023-02-19T17:46:02.554Z,2.10
2023-02-19T17:48:33.956Z,2.10
2023-02-19T17:51:05.544Z,2.35
2023-02-19T17:53:37.413Z,1.77
2023-02-19T17:56:08.118Z,1.00
2023-02-19T17:58:39.056Z,3.03
2023-02-19T18:01:10.901Z,1.17
2023-02-19T18:03:42.481Z,3.20
2023-02-19T18:06:12.151Z,1.67
2023-02-19T18:08:50.103Z,2.80
2023-02-19T18:11:20.480Z,1.70
2023-02-19T18:13:51.157Z,2.05
2023-02-19T18:16:21.340Z,1.50
2023-02-19T18:18:51.630Z,0.93
2023-02-19T18:21:27.168Z,1.60
2023-02-19T18:23:59.301Z,1.05
2023-02-19T18:26:29.051Z,1.20
2023-02-19T18:29:00.178Z,1.17
2023-02-19T18:31:40.015Z,1.65
2023-02-19T18:34:19.474Z,1.88
2023-02-19T18:36:50.498Z,1.60
2023-02-19T18:39:23.628Z,1.55
2023-02-19T18:41:54.489Z,0.68
2023-02-19T18:44:27.918Z,1.83
2023-02-19T18:47:01.274Z,1.10
2023-02-19T18:49:32.964Z,3.00
2023-02-19T18:52:12.921Z,1.10
2023-02-19T18:54:44.781Z,2.53
2023-02-19T18:57:15.609Z,1.90
2023-02-19T18:59:46.568Z,4.38
2023-02-19T19:02:18.089Z,1.55
2023-02-19T19:04:59.043Z,2.28
2023-02-19T19:07:31.136Z,1.60
2023-02-19T19:10:06.717Z,1.42
2023-02-19T19:12:37.905Z,2.05
2023-02-19T19:15:11.973Z,1.48
2023-02-19T19:17:42.277Z,1.20
2023-02-19T19:20:13.164Z,2.45
2023-02-19T19:22:46.457Z,4.05
2023-02-19T19:25:18.791Z,1.95
2023-02-19T19:27:52.195Z,2.47
2023-02-19T19:30:23.178Z,3.03
2023-02-19T19:32:54.313Z,3.70
2023-02-19T19:35:25.093Z,2.63
2023-02-19T19:37:56.962Z,2.17
2023-02-19T19:40:31.617Z,1.30
2023-02-19T19:43:01.946Z,2.13
2023-02-19T19:45:32.681Z,3.17
2023-02-19T19:48:02.474Z,4.05
2023-02-19T19:50:33.512Z,2.15
2023-02-19T19:53:03.526Z,1.52
2023-02-19T19:55:38.136Z,2.25
2023-02-19T19:58:08.690Z,2.17
2023-02-19T20:00:39.779Z,2.08
2023-02-19T20:03:10.496Z,1.38
2023-02-19T20:05:41.092Z,1.20
2023-02-19T20:08:11.306Z,1.35
2023-02-19T20:10:45.415Z,1.08
2023-02-19T20:13:19.997Z,4.53
2023-02-19T20:15:53.944Z,4.13
2023-02-19T20:18:26.110Z,3.40
2023-02-19T20:20:58.884Z,2.20
2023-02-19T20:23:37.534Z,2.17
2023-02-19T20:26:11.164Z,1.67
2023-02-19T20:28:48.728Z,1.50
2023-02-19T20:31:19.391Z,2.55
2023-02-19T20:33:52.664Z,1.75
2023-02-19T20:36:24.548Z,1.75
2023-02-19T20:38:55.030Z,2.90
2023-02-19T20:41:29.867Z,1.90
2023-02-19T20:44:01.320Z,2.53
2023-02-19T20:46:33.083Z,2.53
2023-02-19T20:49:03.860Z,1.55
2023-02-19T20:51:34.054Z,1.13
2023-02-19T20:54:08.045Z,1.52
2023-02-19T20:56:41.812Z,2.50
2023-02-19T20:59:13.586Z,3.40
2023-02-19T21:01:44.106Z,3.75
2023-02-19T21:04:14.902Z,2.30
2023-02-19T21:06:44.422Z,2.55
2023-02-19T21:09:15.590Z,2.60
2023-02-19T21:11:50.216Z,3.15
2023-02-19T21:14:21.461Z,3.47
2023-02-19T21:16:51.942Z,3.33
2023-02-19T21:19:22.428Z,3.08
2023-02-19T21:21:51.917Z,5.30
2023-02-19T21:24:22.253Z,1.73
2023-02-19T21:26:55.174Z,2.95
2023-02-19T21:29:25.499Z,3.90
2023-02-19T21:31:57.378Z,4.43
2023-02-19T21:34:29.267Z,2.58
2023-02-19T21:37:00.872Z,4.70
2023-02-19T21:39:31.472Z,2.92
2023-02-19T21:42:04.533Z,3.67
2023-02-19T21:44:35.170Z,3.20
2023-02-19T21:47:04.714Z,3.10
2023-02-19T21:49:33.481Z,4.13
2023-02-19T21:52:03.611Z,4.72
2023-02-19T21:54:31.826Z,4.05
2023-02-19T21:57:04.475Z,3.95
2023-02-19T21:59:32.784Z,3.47
2023-02-19T22:02:01.241Z,4.40
2023-02-19T22:04:30.538Z,4.35
2023-02-19T22:06:59.006Z,3.60
2023-02-19T22:09:31.070Z,3.05
2023-02-19T22:11:59.368Z,3.55
2023-02-19T22:14:32.517Z,3.03
2023-02-19T22:17:00.788Z,2.92
2023-02-19T22:19:29.099Z,5.15
2023-02-19T22:21:59.459Z,3.53
2023-02-19T22:24:27.730Z,2.80
2023-02-19T22:27:01.091Z,3.70
2023-02-19T22:29:34.804Z,2.38
2023-02-19T22:32:05.248Z,2.92
2023-02-19T22:34:39.500Z,2.83
2023-02-19T22:37:11.931Z,4.18
2023-02-19T22:39:40.188Z,2.85
2023-02-19T22:42:12.006Z,2.35
2023-02-19T22:44:44.193Z,3.47
2023-02-19T22:47:12.437Z,3.13
2023-02-19T22:49:43.914Z,3.08
2023-02-19T22:52:12.613Z,1.83
2023-02-19T22:54:41.997Z,4.65
2023-02-19T22:57:10.201Z,1.77
2023-02-19T22:59:44.740Z,5.40
2023-02-19T23:02:13.192Z,6.55
2023-02-19T23:04:45.414Z,4.47
2023-02-19T23:07:13.631Z,4.38
2023-02-19T23:09:43.932Z,3.20
2023-02-19T23:12:12.842Z,6.18
2023-02-19T23:14:48.059Z,5.03
2023-02-19T23:17:17.588Z,4.93
2023-02-19T23:19:47.177Z,4.70
2023-02-19T23:22:18.720Z,3.50
2023-02-19T23:25:11.565Z,2.13
2023-02-19T23:27:43.049Z,3.22
2023-02-19T23:30:11.859Z,4.05
2023-02-19T23:32:43.515Z,5.13
2023-02-19T23:35:13.833Z,12.50
2023-02-19T23:37:42.017Z,5.68
2023-02-19T23:40:14.071Z,3.33
2023-02-19T23:42:43.256Z,5.65
2023-02-19T23:45:11.376Z,7.65
2023-02-19T23:47:39.528Z,5.38
2023-02-19T23:50:38.157Z,3.88
2023-02-19T23:53:14.382Z,1.90
2023-02-19T23:56:09.001Z,4.50
2023-02-19T23:58:42.419Z,2.85
